sensor_id;sensor_type;location;lat;lon;timestamp;temperature;humidity
46091;DHT22;31826;53.572;10.170;2023-09-19T00:00:38;16.60;99.90
46091;DHT22;31826;53.572;10.170;2023-09-19T00:03:06;16.60;99.90
46091;DHT22;31826;53.572;10.170;2023-09-19T00:05:34;16.60;99.90
46091;DHT22;31826;53.572;10.170;2023-09-19T00:08:01;16.60;99.90
46091;DHT22;31826;53.572;10.170;2023-09-19T00:10:31;16.60;99.90
46091;DHT22;31826;53.572;10.170;2023-09-19T00:12:58;16.70;99.90
46091;DHT22;31826;53.572;10.170;2023-09-19T00:15:31;16.70;99.90
46091;DHT22;31826;53.572;10.170;2023-09-19T00:18:00;16.70;99.90
46091;DHT22;31826;53.572;10.170;2023-09-19T00:20:26;16.60;99.90
46091;DHT22;31826;53.572;10.170;2023-09-19T00:22:53;16.60;99.90
46091;DHT22;31826;53.572;10.170;2023-09-19T00:25:20;16.60;99.90
46091;DHT22;31826;53.572;10.170;2023-09-19T00:27:47;16.70;99.90
46091;DHT22;31826;53.572;10.170;2023-09-19T00:30:13;16.70;99.90
46091;DHT22;31826;53.572;10.170;2023-09-19T00:32:50;16.70;99.90
46091;DHT22;31826;53.572;10.170;2023-09-19T00:35:22;16.70;99.90
46091;DHT22;31826;53.572;10.170;2023-09-19T00:37:52;16.70;99.90
46091;DHT22;31826;53.572;10.170;2023-09-19T00:40:18;16.80;99.90
46091;DHT22;31826;53.572;10.170;2023-09-19T00:42:45;16.70;99.90
46091;DHT22;31826;53.572;10.170;2023-09-19T00:45:12;16.80;99.90
46091;DHT22;31826;53.572;10.170;2023-09-19T00:47:49;16.70;99.90
46091;DHT22;31826;53.572;10.170;2023-09-19T00:50:20;16.80;99.90
46091;DHT22;31826;53.572;10.170;2023-09-19T00:52:48;16.80;99.90
46091;DHT22;31826;53.572;10.170;2023-09-19T00:55:16;16.80;99.90
46091;DHT22;31826;53.572;10.170;2023-09-19T00:57:45;16.70;99.90
46091;DHT22;31826;53.572;10.170;2023-09-19T01:00:11;16.70;99.90
46091;DHT22;31826;53.572;10.170;2023-09-19T01:02:44;16.70;99.90
46091;DHT22;31826;53.572;10.170;2023-09-19T01:05:10;16.60;99.90
46091;DHT22;31826;53.572;10.170;2023-09-19T01:07:36;16.70;99.90
46091;DHT22;31826;53.572;10.170;2023-09-19T01:10:06;16.70;99.90
46091;DHT22;31826;53.572;10.170;2023-09-19T01:12:43;16.70;99.90
46091;DHT22;31826;53.572;10.170;2023-09-19T01:21:01;16.70;99.90
46091;DHT22;31826;53.572;10.170;2023-09-19T01:32:19;16.60;99.90
46091;DHT22;31826;53.572;10.170;2023-09-19T01:34:47;16.50;99.90
46091;DHT22;31826;53.572;10.170;2023-09-19T01:37:14;16.60;99.90
46091;DHT22;31826;53.572;10.170;2023-09-19T01:39:46;16.50;99.90
46091;DHT22;31826;53.572;10.170;2023-09-19T01:42:50;16.60;99.90
46091;DHT22;31826;53.572;10.170;2023-09-19T01:48:23;16.60;99.90
46091;DHT22;31826;53.572;10.170;2023-09-19T01:51:02;16.60;99.90
46091;DHT22;31826;53.572;10.170;2023-09-19T01:54:01;16.60;99.90
46091;DHT22;31826;53.572;10.170;2023-09-19T01:56:40;16.60;99.90
46091;DHT22;31826;53.572;10.170;2023-09-19T01:59:13;16.60;99.90
46091;DHT22;31826;53.572;10.170;2023-09-19T02:01:39;16.50;99.90
46091;DHT22;31826;53.572;10.170;2023-09-19T02:04:08;16.60;99.90
46091;DHT22;31826;53.572;10.170;2023-09-19T02:06:34;16.50;99.90
46091;DHT22;31826;53.572;10.170;2023-09-19T02:09:00;16.50;99.90
46091;DHT22;31826;53.572;10.170;2023-09-19T02:11:26;16.50;99.90
46091;DHT22;31826;53.572;10.170;2023-09-19T02:13:52;16.50;99.90
46091;DHT22;31826;53.572;10.170;2023-09-19T02:16:20;16.60;99.90
46091;DHT22;31826;53.572;10.170;2023-09-19T02:18:50;16.50;99.90
46091;DHT22;31826;53.572;10.170;2023-09-19T02:21:17;16.50;99.90
46091;DHT22;31826;53.572;10.170;2023-09-19T02:23:44;16.50;99.90
46091;DHT22;31826;53.572;10.170;2023-09-19T02:26:10;16.60;99.90
46091;DHT22;31826;53.572;10.170;2023-09-19T02:28:37;16.60;99.90
46091;DHT22;31826;53.572;10.170;2023-09-19T02:31:03;16.50;99.90
46091;DHT22;31826;53.572;10.170;2023-09-19T02:33:31;16.50;99.90
46091;DHT22;31826;53.572;10.170;2023-09-19T02:35:58;16.50;99.90
46091;DHT22;31826;53.572;10.170;2023-09-19T02:38:25;16.50;99.90
46091;DHT22;31826;53.572;10.170;2023-09-19T02:40:52;16.50;99.90
46091;DHT22;31826;53.572;10.170;2023-09-19T02:43:18;16.50;99.90
46091;DHT22;31826;53.572;10.170;2023-09-19T02:45:45;16.50;99.90
46091;DHT22;31826;53.572;10.170;2023-09-19T02:48:20;16.50;99.90
46091;DHT22;31826;53.572;10.170;2023-09-19T02:50:49;16.50;99.90
46091;DHT22;31826;53.572;10.170;2023-09-19T02:53:15;16.40;99.90
46091;DHT22;31826;53.572;10.170;2023-09-19T02:55:40;16.40;99.90
46091;DHT22;31826;53.572;10.170;2023-09-19T02:58:07;16.40;99.90
46091;DHT22;31826;53.572;10.170;2023-09-19T03:00:40;16.40;99.90
46091;DHT22;31826;53.572;10.170;2023-09-19T03:03:08;16.40;99.90
46091;DHT22;31826;53.572;10.170;2023-09-19T03:05:34;16.40;99.90
46091;DHT22;31826;53.572;10.170;2023-09-19T03:08:00;16.40;99.90
46091;DHT22;31826;53.572;10.170;2023-09-19T03:10:26;16.40;99.90
46091;DHT22;31826;53.572;10.170;2023-09-19T03:12:53;16.30;99.90
46091;DHT22;31826;53.572;10.170;2023-09-19T03:15:19;16.30;99.90
46091;DHT22;31826;53.572;10.170;2023-09-19T03:17:47;16.30;99.90
46091;DHT22;31826;53.572;10.170;2023-09-19T03:20:13;16.40;99.90
46091;DHT22;31826;53.572;10.170;2023-09-19T03:22:40;16.30;99.90
46091;DHT22;31826;53.572;10.170;2023-09-19T03:25:07;16.30;99.90
46091;DHT22;31826;53.572;10.170;2023-09-19T03:27:38;16.30;99.90
46091;DHT22;31826;53.572;10.170;2023-09-19T03:30:04;16.30;99.90
46091;DHT22;31826;53.572;10.170;2023-09-19T03:32:35;16.30;99.90
46091;DHT22;31826;53.572;10.170;2023-09-19T03:35:01;16.30;99.90
46091;DHT22;31826;53.572;10.170;2023-09-19T03:37:27;16.30;99.90
46091;DHT22;31826;53.572;10.170;2023-09-19T03:39:53;16.30;99.90
46091;DHT22;31826;53.572;10.170;2023-09-19T03:42:19;16.20;99.90
46091;DHT22;31826;53.572;10.170;2023-09-19T03:44:51;16.20;99.90
46091;DHT22;31826;53.572;10.170;2023-09-19T03:47:18;16.20;99.90
46091;DHT22;31826;53.572;10.170;2023-09-19T03:49:44;16.20;99.90
46091;DHT22;31826;53.572;10.170;2023-09-19T03:52:10;16.10;99.90
46091;DHT22;31826;53.572;10.170;2023-09-19T03:54:36;16.10;99.90
46091;DHT22;31826;53.572;10.170;2023-09-19T03:57:02;16.10;99.90
46091;DHT22;31826;53.572;10.170;2023-09-19T03:59:30;16.10;99.90
46091;DHT22;31826;53.572;10.170;2023-09-19T04:01:56;16.10;99.90
46091;DHT22;31826;53.572;10.170;2023-09-19T04:04:23;16.00;99.90
46091;DHT22;31826;53.572;10.170;2023-09-19T04:06:51;15.90;99.90
46091;DHT22;31826;53.572;10.170;2023-09-19T04:09:16;15.90;99.90
46091;DHT22;31826;53.572;10.170;2023-09-19T04:11:42;15.90;99.90
46091;DHT22;31826;53.572;10.170;2023-09-19T04:14:08;15.80;99.90
46091;DHT22;31826;53.572;10.170;2023-09-19T04:16:33;15.80;99.90
46091;DHT22;31826;53.572;10.170;2023-09-19T04:18:59;15.80;99.90
46091;DHT22;31826;53.572;10.170;2023-09-19T04:21:25;15.70;99.90
46091;DHT22;31826;53.572;10.170;2023-09-19T04:23:52;15.70;99.90
46091;DHT22;31826;53.572;10.170;2023-09-19T04:26:17;15.60;99.90
46091;DHT22;31826;53.572;10.170;2023-09-19T04:28:43;15.60;99.90
46091;DHT22;31826;53.572;10.170;2023-09-19T04:31:09;15.60;99.90
46091;DHT22;31826;53.572;10.170;2023-09-19T04:33:35;15.50;99.90
46091;DHT22;31826;53.572;10.170;2023-09-19T04:36:02;15.50;99.90
46091;DHT22;31826;53.572;10.170;2023-09-19T04:38:29;15.40;99.90
46091;DHT22;31826;53.572;10.170;2023-09-19T04:40:58;15.40;99.90
46091;DHT22;31826;53.572;10.170;2023-09-19T04:43:26;15.30;99.90
46091;DHT22;31826;53.572;10.170;2023-09-19T04:45:52;15.30;99.90
46091;DHT22;31826;53.572;10.170;2023-09-19T04:48:22;15.30;99.90
46091;DHT22;31826;53.572;10.170;2023-09-19T04:50:50;15.30;99.90
46091;DHT22;31826;53.572;10.170;2023-09-19T04:53:17;15.20;99.90
46091;DHT22;31826;53.572;10.170;2023-09-19T04:55:49;15.20;99.90
46091;DHT22;31826;53.572;10.170;2023-09-19T04:58:15;15.20;99.90
46091;DHT22;31826;53.572;10.170;2023-09-19T05:00:42;15.10;99.90
46091;DHT22;31826;53.572;10.170;2023-09-19T05:03:07;15.20;99.90
46091;DHT22;31826;53.572;10.170;2023-09-19T05:05:34;15.10;99.90
46091;DHT22;31826;53.572;10.170;2023-09-19T05:08:00;15.20;99.90
46091;DHT22;31826;53.572;10.170;2023-09-19T05:10:26;15.10;99.90
46091;DHT22;31826;53.572;10.170;2023-09-19T05:12:54;15.10;99.90
46091;DHT22;31826;53.572;10.170;2023-09-19T05:15:20;15.00;99.90
46091;DHT22;31826;53.572;10.170;2023-09-19T05:17:52;15.10;99.90
46091;DHT22;31826;53.572;10.170;2023-09-19T05:20:20;15.10;99.90
46091;DHT22;31826;53.572;10.170;2023-09-19T05:23:03;15.10;99.90
46091;DHT22;31826;53.572;10.170;2023-09-19T05:25:35;15.00;99.90
46091;DHT22;31826;53.572;10.170;2023-09-19T05:28:08;15.10;99.90
46091;DHT22;31826;53.572;10.170;2023-09-19T05:30:35;15.00;99.90
46091;DHT22;31826;53.572;10.170;2023-09-19T05:33:02;15.00;99.90
46091;DHT22;31826;53.572;10.170;2023-09-19T05:35:29;15.00;99.90
46091;DHT22;31826;53.572;10.170;2023-09-19T05:37:56;15.00;99.90
46091;DHT22;31826;53.572;10.170;2023-09-19T05:40:24;14.90;99.90
46091;DHT22;31826;53.572;10.170;2023-09-19T05:42:50;14.90;99.90
46091;DHT22;31826;53.572;10.170;2023-09-19T05:45:18;14.90;99.90
46091;DHT22;31826;53.572;10.170;2023-09-19T05:47:48;14.80;99.90
46091;DHT22;31826;53.572;10.170;2023-09-19T05:50:15;14.80;99.90
46091;DHT22;31826;53.572;10.170;2023-09-19T05:52:42;14.80;99.90
46091;DHT22;31826;53.572;10.170;2023-09-19T05:55:11;14.80;99.90
46091;DHT22;31826;53.572;10.170;2023-09-19T05:57:37;14.80;99.90
46091;DHT22;31826;53.572;10.170;2023-09-19T06:00:08;14.90;99.90
46091;DHT22;31826;53.572;10.170;2023-09-19T06:02:37;14.90;99.90
46091;DHT22;31826;53.572;10.170;2023-09-19T06:05:05;14.90;99.90
46091;DHT22;31826;53.572;10.170;2023-09-19T06:07:32;14.90;99.90
46091;DHT22;31826;53.572;10.170;2023-09-19T06:10:05;15.00;99.90
46091;DHT22;31826;53.572;10.170;2023-09-19T06:12:33;15.00;99.90
46091;DHT22;31826;53.572;10.170;2023-09-19T06:15:03;15.00;99.90
46091;DHT22;31826;53.572;10.170;2023-09-19T06:17:30;15.10;99.90
46091;DHT22;31826;53.572;10.170;2023-09-19T06:19:56;15.20;99.90
46091;DHT22;31826;53.572;10.170;2023-09-19T06:22:22;15.20;99.90
46091;DHT22;31826;53.572;10.170;2023-09-19T06:24:50;15.30;99.90
46091;DHT22;31826;53.572;10.170;2023-09-19T06:27:15;15.30;99.90
46091;DHT22;31826;53.572;10.170;2023-09-19T06:29:41;15.40;99.90
46091;DHT22;31826;53.572;10.170;2023-09-19T06:32:10;15.40;99.90
46091;DHT22;31826;53.572;10.170;2023-09-19T06:34:37;15.50;99.90
46091;DHT22;31826;53.572;10.170;2023-09-19T06:37:09;15.60;99.90
46091;DHT22;31826;53.572;10.170;2023-09-19T06:39:34;15.60;99.90
46091;DHT22;31826;53.572;10.170;2023-09-19T06:42:00;15.50;99.90
46091;DHT22;31826;53.572;10.170;2023-09-19T06:44:27;15.60;99.90
46091;DHT22;31826;53.572;10.170;2023-09-19T06:46:55;15.50;99.90
46091;DHT22;31826;53.572;10.170;2023-09-19T06:49:20;15.60;99.90
46091;DHT22;31826;53.572;10.170;2023-09-19T06:51:46;15.60;99.90
46091;DHT22;31826;53.572;10.170;2023-09-19T06:54:12;15.60;99.90
46091;DHT22;31826;53.572;10.170;2023-09-19T06:56:37;15.60;99.90
46091;DHT22;31826;53.572;10.170;2023-09-19T06:59:03;15.70;99.90
46091;DHT22;31826;53.572;10.170;2023-09-19T07:01:31;15.70;99.90
46091;DHT22;31826;53.572;10.170;2023-09-19T07:03:57;15.80;99.90
46091;DHT22;31826;53.572;10.170;2023-09-19T07:06:23;15.80;99.90
46091;DHT22;31826;53.572;10.170;2023-09-19T07:08:49;15.80;99.90
46091;DHT22;31826;53.572;10.170;2023-09-19T07:11:15;15.70;99.90
46091;DHT22;31826;53.572;10.170;2023-09-19T07:13:42;15.90;99.90
46091;DHT22;31826;53.572;10.170;2023-09-19T07:16:08;15.90;99.90
46091;DHT22;31826;53.572;10.170;2023-09-19T07:18:35;15.90;99.90
46091;DHT22;31826;53.572;10.170;2023-09-19T07:21:02;16.00;99.90
46091;DHT22;31826;53.572;10.170;2023-09-19T07:23:30;15.90;99.90
46091;DHT22;31826;53.572;10.170;2023-09-19T07:26:01;16.00;99.90
46091;DHT22;31826;53.572;10.170;2023-09-19T07:28:26;16.00;99.90
46091;DHT22;31826;53.572;10.170;2023-09-19T07:30:53;16.10;99.90
46091;DHT22;31826;53.572;10.170;2023-09-19T07:33:19;16.10;99.90
46091;DHT22;31826;53.572;10.170;2023-09-19T07:35:46;16.10;99.90
46091;DHT22;31826;53.572;10.170;2023-09-19T07:38:13;16.10;99.90
46091;DHT22;31826;53.572;10.170;2023-09-19T07:40:39;16.20;99.90
46091;DHT22;31826;53.572;10.170;2023-09-19T07:43:05;16.20;99.90
46091;DHT22;31826;53.572;10.170;2023-09-19T07:45:32;16.20;99.90
46091;DHT22;31826;53.572;10.170;2023-09-19T07:47:58;16.20;99.90
46091;DHT22;31826;53.572;10.170;2023-09-19T07:50:25;16.30;99.90
46091;DHT22;31826;53.572;10.170;2023-09-19T07:52:52;16.30;99.90
46091;DHT22;31826;53.572;10.170;2023-09-19T07:55:19;16.30;99.90
46091;DHT22;31826;53.572;10.170;2023-09-19T07:57:49;16.30;99.90
46091;DHT22;31826;53.572;10.170;2023-09-19T08:00:15;16.20;99.90
46091;DHT22;31826;53.572;10.170;2023-09-19T08:02:41;16.20;99.90
46091;DHT22;31826;53.572;10.170;2023-09-19T08:05:11;16.10;99.90
46091;DHT22;31826;53.572;10.170;2023-09-19T08:07:42;16.00;99.90
46091;DHT22;31826;53.572;10.170;2023-09-19T08:10:09;16.00;99.90
46091;DHT22;31826;53.572;10.170;2023-09-19T08:12:44;15.90;99.90
46091;DHT22;31826;53.572;10.170;2023-09-19T08:15:18;15.90;99.90
46091;DHT22;31826;53.572;10.170;2023-09-19T08:17:45;15.90;99.90
46091;DHT22;31826;53.572;10.170;2023-09-19T08:20:11;15.90;99.90
46091;DHT22;31826;53.572;10.170;2023-09-19T08:22:51;15.90;99.90
46091;DHT22;31826;53.572;10.170;2023-09-19T08:25:18;15.90;99.90
46091;DHT22;31826;53.572;10.170;2023-09-19T08:27:45;15.80;99.90
46091;DHT22;31826;53.572;10.170;2023-09-19T08:30:19;15.90;99.90
46091;DHT22;31826;53.572;10.170;2023-09-19T08:32:50;16.00;99.90
46091;DHT22;31826;53.572;10.170;2023-09-19T08:35:16;16.10;99.90
46091;DHT22;31826;53.572;10.170;2023-09-19T08:37:44;16.10;99.90
46091;DHT22;31826;53.572;10.170;2023-09-19T08:40:13;16.20;99.90
46091;DHT22;31826;53.572;10.170;2023-09-19T08:42:50;16.20;99.90
46091;DHT22;31826;53.572;10.170;2023-09-19T08:45:16;16.20;99.90
46091;DHT22;31826;53.572;10.170;2023-09-19T08:47:47;16.30;99.90
46091;DHT22;31826;53.572;10.170;2023-09-19T08:50:26;16.20;99.90
46091;DHT22;31826;53.572;10.170;2023-09-19T08:52:55;16.20;99.90
46091;DHT22;31826;53.572;10.170;2023-09-19T08:55:26;16.20;99.90
46091;DHT22;31826;53.572;10.170;2023-09-19T08:58:02;16.30;99.90
46091;DHT22;31826;53.572;10.170;2023-09-19T09:00:29;16.30;99.90
46091;DHT22;31826;53.572;10.170;2023-09-19T09:02:57;16.30;99.90
46091;DHT22;31826;53.572;10.170;2023-09-19T09:05:24;16.40;99.90
46091;DHT22;31826;53.572;10.170;2023-09-19T09:07:52;16.30;99.90
46091;DHT22;31826;53.572;10.170;2023-09-19T09:10:18;16.40;99.90
46091;DHT22;31826;53.572;10.170;2023-09-19T09:12:50;16.40;99.90
46091;DHT22;31826;53.572;10.170;2023-09-19T09:15:18;16.50;99.90
46091;DHT22;31826;53.572;10.170;2023-09-19T09:17:47;16.50;99.90
46091;DHT22;31826;53.572;10.170;2023-09-19T09:20:14;16.60;99.90
46091;DHT22;31826;53.572;10.170;2023-09-19T09:22:51;16.70;99.90
46091;DHT22;31826;53.572;10.170;2023-09-19T09:25:17;16.60;99.90
46091;DHT22;31826;53.572;10.170;2023-09-19T09:27:44;16.60;99.90
46091;DHT22;31826;53.572;10.170;2023-09-19T09:30:34;16.70;99.90
46091;DHT22;31826;53.572;10.170;2023-09-19T09:33:13;16.70;99.90
46091;DHT22;31826;53.572;10.170;2023-09-19T09:36:07;16.80;99.90
46091;DHT22;31826;53.572;10.170;2023-09-19T09:38:47;16.90;99.90
46091;DHT22;31826;53.572;10.170;2023-09-19T09:41:16;17.00;99.90
46091;DHT22;31826;53.572;10.170;2023-09-19T09:43:53;17.20;99.90
46091;DHT22;31826;53.572;10.170;2023-09-19T09:46:20;17.30;99.90
46091;DHT22;31826;53.572;10.170;2023-09-19T09:48:57;17.50;99.90
46091;DHT22;31826;53.572;10.170;2023-09-19T09:51:42;17.60;99.90
46091;DHT22;31826;53.572;10.170;2023-09-19T09:54:29;17.70;99.90
46091;DHT22;31826;53.572;10.170;2023-09-19T09:57:08;18.00;99.90
46091;DHT22;31826;53.572;10.170;2023-09-19T10:02:28;18.20;99.90
46091;DHT22;31826;53.572;10.170;2023-09-19T10:04:56;18.30;99.90
46091;DHT22;31826;53.572;10.170;2023-09-19T10:07:32;18.40;99.90
46091;DHT22;31826;53.572;10.170;2023-09-19T10:10:02;18.40;99.90
46091;DHT22;31826;53.572;10.170;2023-09-19T10:12:48;18.30;99.90
46091;DHT22;31826;53.572;10.170;2023-09-19T10:15:18;18.40;99.90
46091;DHT22;31826;53.572;10.170;2023-09-19T10:17:52;18.50;99.90
46091;DHT22;31826;53.572;10.170;2023-09-19T10:20:21;18.50;99.90
46091;DHT22;31826;53.572;10.170;2023-09-19T10:22:50;18.40;99.90
46091;DHT22;31826;53.572;10.170;2023-09-19T10:25:31;18.40;99.90
46091;DHT22;31826;53.572;10.170;2023-09-19T10:28:00;18.30;99.90
46091;DHT22;31826;53.572;10.170;2023-09-19T10:30:31;18.10;99.90
46091;DHT22;31826;53.572;10.170;2023-09-19T10:33:03;18.10;99.90
46091;DHT22;31826;53.572;10.170;2023-09-19T10:35:32;18.10;99.90
46091;DHT22;31826;53.572;10.170;2023-09-19T10:38:00;18.20;99.90
46091;DHT22;31826;53.572;10.170;2023-09-19T10:40:27;18.20;99.90
46091;DHT22;31826;53.572;10.170;2023-09-19T10:43:04;18.40;99.90
46091;DHT22;31826;53.572;10.170;2023-09-19T10:45:34;18.30;99.90
46091;DHT22;31826;53.572;10.170;2023-09-19T10:48:03;18.30;99.90
46091;DHT22;31826;53.572;10.170;2023-09-19T10:50:33;18.20;99.90
46091;DHT22;31826;53.572;10.170;2023-09-19T10:53:04;18.10;99.90
46091;DHT22;31826;53.572;10.170;2023-09-19T10:55:33;18.00;99.90
46091;DHT22;31826;53.572;10.170;2023-09-19T10:58:01;18.10;99.90
46091;DHT22;31826;53.572;10.170;2023-09-19T11:00:30;18.10;99.90
46091;DHT22;31826;53.572;10.170;2023-09-19T11:05:41;18.10;99.90
46091;DHT22;31826;53.572;10.170;2023-09-19T11:08:08;18.30;99.90
46091;DHT22;31826;53.572;10.170;2023-09-19T11:10:50;18.40;99.90
46091;DHT22;31826;53.572;10.170;2023-09-19T11:13:26;18.30;99.90
46091;DHT22;31826;53.572;10.170;2023-09-19T11:27:12;18.10;99.90
46091;DHT22;31826;53.572;10.170;2023-09-19T11:29:39;18.20;99.90
46091;DHT22;31826;53.572;10.170;2023-09-19T11:32:06;18.30;99.90
46091;DHT22;31826;53.572;10.170;2023-09-19T11:34:42;18.30;99.90
46091;DHT22;31826;53.572;10.170;2023-09-19T11:39:37;18.50;99.90
46091;DHT22;31826;53.572;10.170;2023-09-19T11:42:42;18.60;99.90
46091;DHT22;31826;53.572;10.170;2023-09-19T11:46:00;18.50;99.90
46091;DHT22;31826;53.572;10.170;2023-09-19T11:48:23;18.30;99.90
46091;DHT22;31826;53.572;10.170;2023-09-19T11:50:53;18.20;99.90
46091;DHT22;31826;53.572;10.170;2023-09-19T11:53:19;18.30;99.90
46091;DHT22;31826;53.572;10.170;2023-09-19T11:55:45;18.20;99.90
46091;DHT22;31826;53.572;10.170;2023-09-19T11:58:20;18.20;99.90
46091;DHT22;31826;53.572;10.170;2023-09-19T12:00:54;18.30;99.90
46091;DHT22;31826;53.572;10.170;2023-09-19T12:03:21;18.30;99.90
46091;DHT22;31826;53.572;10.170;2023-09-19T12:05:48;18.50;99.90
46091;DHT22;31826;53.572;10.170;2023-09-19T12:08:15;18.50;99.90
46091;DHT22;31826;53.572;10.170;2023-09-19T12:10:50;18.60;99.90
46091;DHT22;31826;53.572;10.170;2023-09-19T12:13:17;18.80;99.90
46091;DHT22;31826;53.572;10.170;2023-09-19T12:15:44;18.80;99.90
46091;DHT22;31826;53.572;10.170;2023-09-19T12:18:28;18.50;99.90
46091;DHT22;31826;53.572;10.170;2023-09-19T12:20:55;18.60;99.90
46091;DHT22;31826;53.572;10.170;2023-09-19T12:23:21;18.50;99.90
46091;DHT22;31826;53.572;10.170;2023-09-19T12:25:47;18.70;99.90
46091;DHT22;31826;53.572;10.170;2023-09-19T12:28:18;18.80;99.90
46091;DHT22;31826;53.572;10.170;2023-09-19T12:30:43;18.90;99.90
46091;DHT22;31826;53.572;10.170;2023-09-19T12:33:16;18.90;99.90
46091;DHT22;31826;53.572;10.170;2023-09-19T12:35:45;18.80;99.90
46091;DHT22;31826;53.572;10.170;2023-09-19T12:38:11;18.80;99.90
46091;DHT22;31826;53.572;10.170;2023-09-19T12:40:39;19.20;99.90
46091;DHT22;31826;53.572;10.170;2023-09-19T12:43:08;19.20;99.90
46091;DHT22;31826;53.572;10.170;2023-09-19T12:45:35;19.40;99.90
46091;DHT22;31826;53.572;10.170;2023-09-19T12:48:19;19.10;99.90
46091;DHT22;31826;53.572;10.170;2023-09-19T12:51:09;19.10;99.90
46091;DHT22;31826;53.572;10.170;2023-09-19T12:53:40;19.20;99.90
46091;DHT22;31826;53.572;10.170;2023-09-19T12:56:08;19.30;99.70
46091;DHT22;31826;53.572;10.170;2023-09-19T12:58:56;19.40;99.80
46091;DHT22;31826;53.572;10.170;2023-09-19T13:01:25;19.40;99.90
46091;DHT22;31826;53.572;10.170;2023-09-19T13:04:14;19.30;99.90
46091;DHT22;31826;53.572;10.170;2023-09-19T13:06:52;19.40;99.90
46091;DHT22;31826;53.572;10.170;2023-09-19T13:09:20;19.50;99.80
46091;DHT22;31826;53.572;10.170;2023-09-19T13:11:46;19.50;99.50
46091;DHT22;31826;53.572;10.170;2023-09-19T13:14:26;19.40;99.40
46091;DHT22;31826;53.572;10.170;2023-09-19T13:17:07;19.40;99.50
46091;DHT22;31826;53.572;10.170;2023-09-19T13:19:47;19.40;98.70
46091;DHT22;31826;53.572;10.170;2023-09-19T13:22:39;19.60;98.40
46091;DHT22;31826;53.572;10.170;2023-09-19T13:25:08;19.60;97.30
46091;DHT22;31826;53.572;10.170;2023-09-19T13:27:40;19.40;97.20
46091;DHT22;31826;53.572;10.170;2023-09-19T13:30:07;19.50;97.70
46091;DHT22;31826;53.572;10.170;2023-09-19T13:32:32;19.70;97.60
46091;DHT22;31826;53.572;10.170;2023-09-19T13:34:59;19.60;96.70
46091;DHT22;31826;53.572;10.170;2023-09-19T13:37:25;19.40;97.30
46091;DHT22;31826;53.572;10.170;2023-09-19T13:39:52;19.40;98.00
46091;DHT22;31826;53.572;10.170;2023-09-19T13:42:17;19.60;98.00
46091;DHT22;31826;53.572;10.170;2023-09-19T13:44:44;19.70;97.40
46091;DHT22;31826;53.572;10.170;2023-09-19T13:47:09;20.00;97.70
46091;DHT22;31826;53.572;10.170;2023-09-19T13:49:38;20.20;96.80
46091;DHT22;31826;53.572;10.170;2023-09-19T13:52:04;20.40;97.20
46091;DHT22;31826;53.572;10.170;2023-09-19T13:54:31;20.30;95.90
46091;DHT22;31826;53.572;10.170;2023-09-19T13:56:56;20.60;95.70
46091;DHT22;31826;53.572;10.170;2023-09-19T13:59:22;21.10;94.50
46091;DHT22;31826;53.572;10.170;2023-09-19T14:01:51;21.20;94.20
46091;DHT22;31826;53.572;10.170;2023-09-19T14:04:19;21.30;94.30
46091;DHT22;31826;53.572;10.170;2023-09-19T14:06:46;21.30;93.70
46091;DHT22;31826;53.572;10.170;2023-09-19T14:09:12;21.40;94.30
46091;DHT22;31826;53.572;10.170;2023-09-19T14:11:39;21.30;94.10
46091;DHT22;31826;53.572;10.170;2023-09-19T14:14:05;21.00;93.60
46091;DHT22;31826;53.572;10.170;2023-09-19T14:16:31;20.70;94.40
46091;DHT22;31826;53.572;10.170;2023-09-19T14:18:57;20.30;94.70
46091;DHT22;31826;53.572;10.170;2023-09-19T14:21:26;20.10;95.20
46091;DHT22;31826;53.572;10.170;2023-09-19T14:23:51;20.00;95.50
46091;DHT22;31826;53.572;10.170;2023-09-19T14:26:21;20.10;95.40
46091;DHT22;31826;53.572;10.170;2023-09-19T14:28:48;20.30;95.50
46091;DHT22;31826;53.572;10.170;2023-09-19T14:31:14;20.30;95.50
46091;DHT22;31826;53.572;10.170;2023-09-19T14:33:41;20.30;95.20
46091;DHT22;31826;53.572;10.170;2023-09-19T14:36:10;19.90;95.50
46091;DHT22;31826;53.572;10.170;2023-09-19T14:38:37;19.70;96.00
46091;DHT22;31826;53.572;10.170;2023-09-19T14:41:06;19.70;96.20
46091;DHT22;31826;53.572;10.170;2023-09-19T14:43:32;19.60;96.50
46091;DHT22;31826;53.572;10.170;2023-09-19T14:46:05;19.50;97.10
46091;DHT22;31826;53.572;10.170;2023-09-19T14:48:47;19.40;97.90
46091;DHT22;31826;53.572;10.170;2023-09-19T14:51:13;19.50;98.80
46091;DHT22;31826;53.572;10.170;2023-09-19T14:53:44;19.50;98.20
46091;DHT22;31826;53.572;10.170;2023-09-19T14:56:11;19.50;98.60
46091;DHT22;31826;53.572;10.170;2023-09-19T14:58:37;19.40;98.70
46091;DHT22;31826;53.572;10.170;2023-09-19T15:01:08;19.30;99.60
46091;DHT22;31826;53.572;10.170;2023-09-19T15:03:35;19.30;99.20
46091;DHT22;31826;53.572;10.170;2023-09-19T15:06:05;19.40;99.90
46091;DHT22;31826;53.572;10.170;2023-09-19T15:08:35;19.40;99.90
46091;DHT22;31826;53.572;10.170;2023-09-19T15:11:04;19.40;99.90
46091;DHT22;31826;53.572;10.170;2023-09-19T15:13:34;19.30;99.90
46091;DHT22;31826;53.572;10.170;2023-09-19T15:16:05;19.20;99.90
46091;DHT22;31826;53.572;10.170;2023-09-19T15:18:34;19.10;99.90
46091;DHT22;31826;53.572;10.170;2023-09-19T15:21:06;19.00;99.90
46091;DHT22;31826;53.572;10.170;2023-09-19T15:23:33;18.90;99.90
46091;DHT22;31826;53.572;10.170;2023-09-19T15:26:03;18.70;99.90
46091;DHT22;31826;53.572;10.170;2023-09-19T15:28:30;18.80;99.90
46091;DHT22;31826;53.572;10.170;2023-09-19T15:31:01;18.80;99.90
46091;DHT22;31826;53.572;10.170;2023-09-19T15:33:27;18.80;99.90
46091;DHT22;31826;53.572;10.170;2023-09-19T15:36:10;18.80;99.90
46091;DHT22;31826;53.572;10.170;2023-09-19T15:41:31;18.70;99.90
46091;DHT22;31826;53.572;10.170;2023-09-19T15:43:58;18.70;99.90
46091;DHT22;31826;53.572;10.170;2023-09-19T15:46:27;18.70;99.90
46091;DHT22;31826;53.572;10.170;2023-09-19T15:48:56;18.70;99.90
46091;DHT22;31826;53.572;10.170;2023-09-19T15:51:23;18.80;99.90
46091;DHT22;31826;53.572;10.170;2023-09-19T15:53:50;18.80;99.90
46091;DHT22;31826;53.572;10.170;2023-09-19T15:56:17;18.80;99.90
46091;DHT22;31826;53.572;10.170;2023-09-19T15:58:47;18.80;99.90
46091;DHT22;31826;53.572;10.170;2023-09-19T16:01:13;18.70;99.90
46091;DHT22;31826;53.572;10.170;2023-09-19T16:03:43;18.70;99.90
46091;DHT22;31826;53.572;10.170;2023-09-19T16:06:13;18.70;99.90
46091;DHT22;31826;53.572;10.170;2023-09-19T16:08:44;18.60;99.90